Terminal Aerodrome Forecast
Issued by NWS Columbia, SC

Home | Current Version | Previous Version | Text Only | Print | Product List | Glossary On
Versions: 1 2 3 4 5 6 7 8 9 10 11 12 13 14 15 16 17 18 19 20 21 22 23 24 25 26 27 28 29 30 31 32 33 34 35 36 37 38 39 40 41 42 43 44 45
748
FTAK31 PAJN 142338
TAFAGS
TAF
PAGS 142338Z 1500/1524 34003KT P6SM VCSH BKN005 OVC060
     FM150200 31006KT P6SM BKN030 OVC050
     FM150600 13004KT P6SM VCSH SCT015 BKN025 OVC040
     FM150900 13004KT 3SM -RA BR BKN015 OVC025
      AMD LTD TO CLD VIS AND WIND=

USA.gov is the U.S. government's official web portal to all federal, state and local government web resources and services.